Time;durP1;ratioP1;P1;durP2;ratioP2;P2;SDS_P1;SDS_P2;PMS_P1;PMS_P2;Temp;Humidity;BMP_temperature;BMP_pressure;BME280_temperature;BME280_humidity;BME280_pressure;Samples;Min_cycle;Max_cycle;Signal;HPM_P1;HPM_P2
2022/04/17 00:01:42;;;;;;;11.4;16.2;;;;;;;3.3;72.7;99840;;;;
2022/04/17 00:12:40;;;;;;;10.7;18.3;;;;;;;3.2;74.2;99840;;;;
2022/04/17 00:22:40;;;;;;;10.7;18.3;;;;;;;3.1;73.7;99840;;;;
2022/04/17 00:32:40;;;;;;;10.7;18.3;;;;;;;2.8;75.4;99840;;;;
2022/04/17 00:42:41;;;;;;;11.7;17.1;;;;;;;2.7;75.3;99830;;;;
2022/04/17 00:53:41;;;;;;;11.7;17.1;;;;;;;2.6;74.9;99830;;;;
2022/04/17 01:03:41;;;;;;;11.7;17.1;;;;;;;2.6;75.5;99820;;;;
2022/04/17 01:13:41;;;;;;;11.9;18;;;;;;;2.6;75.1;99820;;;;
2022/04/17 01:35:40;;;;;;;11.9;18;;;;;;;2.4;75.3;99810;;;;
2022/04/17 01:46:40;;;;;;;11.1;15.9;;;;;;;2.3;75.2;99810;;;;
2022/04/17 01:56:40;;;;;;;11.1;15.9;;;;;;;2.2;75.6;99810;;;;
2022/04/17 02:07:40;;;;;;;11.1;15.9;;;;;;;2.1;75.8;99810;;;;
2022/04/17 02:17:41;;;;;;;9.4;13.6;;;;;;;1.9;76.7;99800;;;;
2022/04/17 02:28:40;;;;;;;9.4;13.6;;;;;;;1.6;76.7;99800;;;;
2022/04/17 02:39:40;;;;;;;9.4;13.6;;;;;;;1.4;76.8;99780;;;;
2022/04/17 02:49:40;;;;;;;9.4;15.1;;;;;;;1.4;77.6;99790;;;;
2022/04/17 03:10:40;;;;;;;11.6;20.5;;;;;;;1.6;78.4;99800;;;;
2022/04/17 03:21:40;;;;;;;11.6;20.5;;;;;;;1.5;79.1;99800;;;;
2022/04/17 03:32:40;;;;;;;11.6;20.5;;;;;;;1.3;78.6;99800;;;;
2022/04/17 03:42:40;;;;;;;11.6;18.7;;;;;;;1.2;78.4;99800;;;;
2022/04/17 03:53:42;;;;;;;11.6;18.7;;;;;;;1;78.1;99800;;;;
2022/04/17 04:04:40;;;;;;;11.6;18.7;;;;;;;0.9;78.3;99810;;;;
2022/04/17 04:14:40;;;;;;;12.1;19;;;;;;;0.9;78.6;99810;;;;
2022/04/17 04:25:41;;;;;;;12.1;19;;;;;;;1.1;78.7;99800;;;;
2022/04/17 04:36:40;;;;;;;12.1;19;;;;;;;1.5;78.2;99810;;;;
2022/04/17 04:46:40;;;;;;;10.5;17.2;;;;;;;1.8;77.9;99810;;;;
2022/04/17 04:57:41;;;;;;;10.5;17.2;;;;;;;2.3;76.7;99810;;;;
2022/04/17 05:08:40;;;;;;;10.5;17.2;;;;;;;3;76.9;99810;;;;
2022/04/17 05:18:41;;;;;;;9.4;14.1;;;;;;;3.5;73.3;99810;;;;
2022/04/17 05:29:41;;;;;;;9.4;14.1;;;;;;;3.7;70;99810;;;;
2022/04/17 05:39:41;;;;;;;9.4;14.1;;;;;;;4;68.8;99820;;;;
2022/04/17 05:49:41;;;;;;;8.8;13.4;;;;;;;4.2;68;99820;;;;
2022/04/17 05:59:41;;;;;;;8.8;13.4;;;;;;;4.2;68.8;99810;;;;
2022/04/17 06:10:41;;;;;;;11.5;17.9;;;;;;;4.7;68.1;99820;;;;
2022/04/17 06:21:40;;;;;;;11.5;17.9;;;;;;;5.3;64.2;99810;;;;
2022/04/17 06:32:40;;;;;;;11.5;17.9;;;;;;;5.6;62.9;99810;;;;
2022/04/17 06:43:41;;;;;;;6.5;9.6;;;;;;;6;61.1;99810;;;;
2022/04/17 06:54:41;;;;;;;6.5;9.6;;;;;;;6.6;57.6;99810;;;;
2022/04/17 07:04:40;;;;;;;6.5;9.6;;;;;;;6.8;52.8;99810;;;;
2022/04/17 07:15:41;;;;;;;3.6;5.8;;;;;;;7.1;50.8;99810;;;;
2022/04/17 07:25:41;;;;;;;3.6;5.8;;;;;;;6.9;43.7;99810;;;;
2022/04/17 07:35:41;;;;;;;3.6;5.8;;;;;;;7;44.5;99820;;;;
2022/04/17 07:46:41;;;;;;;1.9;4;;;;;;;7.6;42.8;99810;;;;
2022/04/17 07:58:12;;;;;;;1.9;4;;;;;;;7.8;41.7;99800;;;;
2022/04/17 08:07:41;;;;;;;1.9;4;;;;;;;7.9;43.7;99800;;;;
2022/04/17 08:18:41;;;;;;;1.7;3.1;;;;;;;7.8;40.7;99790;;;;
2022/04/17 08:29:41;;;;;;;1.7;3.1;;;;;;;8;44.3;99800;;;;
2022/04/17 08:39:41;;;;;;;2.2;3.7;;;;;;;8.2;43.6;99790;;;;
2022/04/17 08:49:41;;;;;;;2.2;3.7;;;;;;;8.3;44.9;99780;;;;
2022/04/17 08:59:41;;;;;;;2.2;3.7;;;;;;;8.6;41.6;99790;;;;
2022/04/17 09:09:41;;;;;;;2;3.7;;;;;;;8.4;42.1;99770;;;;
2022/04/17 09:19:41;;;;;;;2;3.7;;;;;;;8.5;42.4;99760;;;;
2022/04/17 09:30:42;;;;;;;2;3.7;;;;;;;8.8;42.2;99740;;;;
2022/04/17 09:41:41;;;;;;;2.6;4.7;;;;;;;9.2;42.5;99730;;;;
2022/04/17 09:51:41;;;;;;;2.6;4.7;;;;;;;9.3;40.3;99720;;;;
2022/04/17 10:01:41;;;;;;;2.6;4.7;;;;;;;10.2;41.9;99710;;;;
2022/04/17 10:12:41;;;;;;;2.3;5.1;;;;;;;9.8;41.5;99710;;;;
2022/04/17 10:22:41;;;;;;;2.3;5.1;;;;;;;10;40.8;99690;;;;
2022/04/17 10:33:41;;;;;;;2.3;5.1;;;;;;;9.9;40.5;99680;;;;
2022/04/17 10:43:41;;;;;;;3.2;7.1;;;;;;;9.3;42.1;99680;;;;
2022/04/17 10:53:41;;;;;;;3.2;7.1;;;;;;;10.6;38.5;99660;;;;
2022/04/17 11:04:41;;;;;;;3.2;7.1;;;;;;;10.2;40;99660;;;;
2022/04/17 11:14:41;;;;;;;3.3;5.3;;;;;;;9.7;40.5;99640;;;;
2022/04/17 11:25:41;;;;;;;3.3;5.3;;;;;;;10.2;38.1;99630;;;;
2022/04/17 11:35:41;;;;;;;3.3;5.3;;;;;;;10.2;38.2;99620;;;;
2022/04/17 11:45:41;;;;;;;1.9;3.6;;;;;;;10.4;38;99600;;;;
2022/04/17 11:55:41;;;;;;;1.9;3.6;;;;;;;11.3;38.2;99590;;;;
2022/04/17 12:06:41;;;;;;;1.9;3.6;;;;;;;10.3;38.6;99590;;;;
2022/04/17 12:16:41;;;;;;;1.6;3.6;;;;;;;10.5;36.5;99570;;;;
2022/04/17 12:27:41;;;;;;;1.6;3.6;;;;;;;10.9;35.2;99560;;;;
2022/04/17 12:38:41;;;;;;;1.6;3.6;;;;;;;10.9;38.6;99550;;;;
2022/04/17 12:48:41;;;;;;;2;3.8;;;;;;;10.3;37.1;99540;;;;
2022/04/17 12:59:41;;;;;;;2;3.8;;;;;;;10.4;37.4;99530;;;;
2022/04/17 13:09:41;;;;;;;1.7;3.7;;;;;;;10.7;37;99520;;;;
2022/04/17 13:20:41;;;;;;;1.7;3.7;;;;;;;10.8;36.8;99500;;;;
2022/04/17 13:30:41;;;;;;;1.7;3.7;;;;;;;10.5;37.6;99490;;;;
2022/04/17 13:40:41;;;;;;;1.4;3;;;;;;;10.5;37.5;99490;;;;
2022/04/17 13:50:41;;;;;;;1.4;3;;;;;;;10.4;38.6;99480;;;;
2022/04/17 14:01:41;;;;;;;1.4;3;;;;;;;10.5;38.2;99470;;;;
2022/04/17 14:12:41;;;;;;;2;3.6;;;;;;;10.4;39.9;99460;;;;
2022/04/17 14:23:41;;;;;;;2;3.6;;;;;;;10.5;39.5;99460;;;;
2022/04/17 14:33:41;;;;;;;2;3.6;;;;;;;11.3;38.4;99450;;;;
2022/04/17 14:43:41;;;;;;;2.4;4.1;;;;;;;10.3;38.9;99440;;;;
2022/04/17 14:54:41;;;;;;;2.4;4.1;;;;;;;9.8;40.3;99430;;;;
2022/04/17 15:04:41;;;;;;;2.4;4.1;;;;;;;9.3;41.8;99420;;;;
2022/04/17 15:15:41;;;;;;;2.4;5.6;;;;;;;9.7;41.2;99420;;;;
2022/04/17 15:25:41;;;;;;;2.4;5.6;;;;;;;9.5;40.8;99410;;;;
2022/04/17 15:36:41;;;;;;;2.4;5.6;;;;;;;9.2;40.3;99400;;;;
2022/04/17 15:56:43;;;;;;;1.7;3;;;;;;;9.4;41.5;99380;;;;
2022/04/17 16:07:41;;;;;;;1.7;3;;;;;;;9.3;41.6;99370;;;;
2022/04/17 16:18:41;;;;;;;2.4;4.8;;;;;;;8.6;44.4;99370;;;;
2022/04/17 16:28:41;;;;;;;2.4;4.8;;;;;;;8.4;45.1;99360;;;;
2022/04/17 16:38:41;;;;;;;2.4;4.8;;;;;;;8.5;44.6;99360;;;;
2022/04/17 16:49:41;;;;;;;2.5;4.7;;;;;;;8.4;45.1;99360;;;;
2022/04/17 17:00:41;;;;;;;2.5;4.7;;;;;;;8.2;44.9;99360;;;;
2022/04/17 17:10:41;;;;;;;25.4;35.8;;;;;;;7.9;46.1;99360;;;;
2022/04/17 17:20:41;;;;;;;25.4;35.8;;;;;;;7.6;47;99370;;;;
2022/04/17 17:31:41;;;;;;;25.4;35.8;;;;;;;7.5;47.4;99360;;;;
2022/04/17 17:41:41;;;;;;;8.7;11.3;;;;;;;7.3;48.1;99360;;;;
2022/04/17 17:52:41;;;;;;;8.7;11.3;;;;;;;7.1;48.4;99360;;;;
2022/04/17 18:03:41;;;;;;;8.7;11.3;;;;;;;6.9;50.9;99360;;;;
2022/04/17 18:14:42;;;;;;;5.2;8.3;;;;;;;6.7;53.1;99360;;;;
2022/04/17 18:24:43;;;;;;;5.2;8.3;;;;;;;6.5;53.1;99350;;;;
2022/04/17 18:34:41;;;;;;;5.2;8.3;;;;;;;6.4;52.8;99360;;;;
2022/04/17 18:44:41;;;;;;;12.8;16.3;;;;;;;6.3;53.1;99350;;;;
2022/04/17 18:55:41;;;;;;;12.8;16.3;;;;;;;6.2;53;99340;;;;
2022/04/17 19:05:41;;;;;;;12.8;16.3;;;;;;;6.1;53.5;99340;;;;
2022/04/17 19:15:41;;;;;;;19.2;30;;;;;;;6;53.3;99330;;;;
2022/04/17 19:25:41;;;;;;;19.2;30;;;;;;;5.8;54.6;99330;;;;
2022/04/17 19:36:41;;;;;;;19.2;30;;;;;;;5.8;54.6;99310;;;;
2022/04/17 19:47:41;;;;;;;19.5;25.6;;;;;;;5.7;56.2;99310;;;;
2022/04/17 19:58:41;;;;;;;19.5;25.6;;;;;;;5.6;55.6;99290;;;;
2022/04/17 20:08:41;;;;;;;11.5;17.4;;;;;;;5.5;56.2;99280;;;;
2022/04/17 20:18:41;;;;;;;11.5;17.4;;;;;;;5.4;58.3;99280;;;;
2022/04/17 20:29:41;;;;;;;11.5;17.4;;;;;;;5.3;58.4;99260;;;;
2022/04/17 20:39:41;;;;;;;8.7;11.3;;;;;;;5.1;57.8;99250;;;;
2022/04/17 20:50:45;;;;;;;8.7;11.3;;;;;;;4.9;59.7;99240;;;;
2022/04/17 20:59:41;;;;;;;8.7;11.3;;;;;;;4.7;60.8;99230;;;;
2022/04/17 21:09:41;;;;;;;7.6;10.1;;;;;;;4.4;61;99220;;;;
2022/04/17 21:19:41;;;;;;;7.6;10.1;;;;;;;4;62.5;99220;;;;
2022/04/17 21:30:41;;;;;;;7.6;10.1;;;;;;;3.6;65.1;99220;;;;
2022/04/17 21:40:41;;;;;;;9.8;16.6;;;;;;;3.1;64.6;99210;;;;
2022/04/17 21:51:41;;;;;;;9.8;16.6;;;;;;;2.9;64.3;99210;;;;
2022/04/17 22:12:41;;;;;;;10;17;;;;;;;2.5;65.6;99200;;;;
2022/04/17 22:23:41;;;;;;;10;17;;;;;;;2.1;65.8;99190;;;;
2022/04/17 22:34:41;;;;;;;10;17;;;;;;;2;66.2;99180;;;;
2022/04/17 22:44:41;;;;;;;24.2;44.5;;;;;;;2;66.5;99170;;;;
2022/04/17 22:54:41;;;;;;;24.2;44.5;;;;;;;1.7;66.6;99160;;;;
2022/04/17 23:04:41;;;;;;;24.2;44.5;;;;;;;1.5;67.4;99140;;;;
2022/04/17 23:15:41;;;;;;;43.8;96.4;;;;;;;1.2;67.9;99130;;;;
2022/04/17 23:25:41;;;;;;;43.8;96.4;;;;;;;1.1;70.2;99120;;;;
2022/04/17 23:35:42;;;;;;;43.8;96.4;;;;;;;0.9;70.1;99110;;;;
2022/04/17 23:46:41;;;;;;;16;32.7;;;;;;;0.7;71.1;99100;;;;
2022/04/17 23:57:41;;;;;;;16;32.7;;;;;;;0.6;71.1;99090;;;;
